sensor_id;sensor_type;location;lat;lon;timestamp;P1;durP1;ratioP1;P2;durP2;ratioP2
19776;SDS011;10047;42.490;26.012;2023-09-19T00:00:23;7.65;;;5.32;;
19776;SDS011;10047;42.490;26.012;2023-09-19T00:02:55;9.85;;;5.38;;
19776;SDS011;10047;42.490;26.012;2023-09-19T00:05:24;7.43;;;5.57;;
19776;SDS011;10047;42.490;26.012;2023-09-19T00:07:54;9.35;;;5.38;;
19776;SDS011;10047;42.490;26.012;2023-09-19T00:12:55;6.70;;;5.43;;
19776;SDS011;10047;42.490;26.012;2023-09-19T00:15:20;8.82;;;5.70;;
19776;SDS011;10047;42.490;26.012;2023-09-19T00:17:46;6.20;;;5.45;;
19776;SDS011;10047;42.490;26.012;2023-09-19T00:20:12;6.82;;;5.30;;
19776;SDS011;10047;42.490;26.012;2023-09-19T00:22:40;8.45;;;5.93;;
19776;SDS011;10047;42.490;26.012;2023-09-19T00:25:07;8.13;;;6.10;;
19776;SDS011;10047;42.490;26.012;2023-09-19T00:27:34;7.15;;;5.35;;
19776;SDS011;10047;42.490;26.012;2023-09-19T00:30:00;7.32;;;5.63;;
19776;SDS011;10047;42.490;26.012;2023-09-19T00:32:25;8.15;;;5.80;;
19776;SDS011;10047;42.490;26.012;2023-09-19T00:34:56;7.10;;;5.38;;
19776;SDS011;10047;42.490;26.012;2023-09-19T00:37:27;7.82;;;5.80;;
19776;SDS011;10047;42.490;26.012;2023-09-19T00:39:52;8.77;;;5.45;;
19776;SDS011;10047;42.490;26.012;2023-09-19T00:42:21;7.25;;;5.55;;
19776;SDS011;10047;42.490;26.012;2023-09-19T00:44:47;6.40;;;5.40;;
19776;SDS011;10047;42.490;26.012;2023-09-19T00:47:13;6.95;;;5.80;;
19776;SDS011;10047;42.490;26.012;2023-09-19T00:49:43;6.45;;;5.53;;
19776;SDS011;10047;42.490;26.012;2023-09-19T00:52:10;6.57;;;5.28;;
19776;SDS011;10047;42.490;26.012;2023-09-19T00:54:37;6.55;;;5.88;;
19776;SDS011;10047;42.490;26.012;2023-09-19T00:57:02;7.47;;;5.20;;
19776;SDS011;10047;42.490;26.012;2023-09-19T00:59:28;7.40;;;5.78;;
19776;SDS011;10047;42.490;26.012;2023-09-19T01:01:56;6.50;;;5.40;;
19776;SDS011;10047;42.490;26.012;2023-09-19T01:04:22;8.30;;;5.68;;
19776;SDS011;10047;42.490;26.012;2023-09-19T01:06:48;7.47;;;5.82;;
19776;SDS011;10047;42.490;26.012;2023-09-19T01:09:18;6.78;;;5.60;;
19776;SDS011;10047;42.490;26.012;2023-09-19T01:11:45;7.35;;;5.53;;
19776;SDS011;10047;42.490;26.012;2023-09-19T01:14:20;9.40;;;5.68;;
19776;SDS011;10047;42.490;26.012;2023-09-19T01:22:48;9.73;;;7.40;;
19776;SDS011;10047;42.490;26.012;2023-09-19T01:30:46;12.80;;;8.13;;
19776;SDS011;10047;42.490;26.012;2023-09-19T01:33:15;9.93;;;7.82;;
19776;SDS011;10047;42.490;26.012;2023-09-19T01:35:44;11.32;;;7.72;;
19776;SDS011;10047;42.490;26.012;2023-09-19T01:38:10;10.57;;;8.23;;
19776;SDS011;10047;42.490;26.012;2023-09-19T01:40:43;9.45;;;8.45;;
19776;SDS011;10047;42.490;26.012;2023-09-19T01:43:18;11.77;;;8.70;;
19776;SDS011;10047;42.490;26.012;2023-09-19T01:51:34;11.20;;;8.27;;
19776;SDS011;10047;42.490;26.012;2023-09-19T01:54:11;9.27;;;7.97;;
19776;SDS011;10047;42.490;26.012;2023-09-19T01:56:52;11.65;;;8.13;;
19776;SDS011;10047;42.490;26.012;2023-09-19T01:59:28;9.10;;;7.53;;
19776;SDS011;10047;42.490;26.012;2023-09-19T02:02:03;9.27;;;8.27;;
19776;SDS011;10047;42.490;26.012;2023-09-19T02:04:32;9.80;;;7.90;;
19776;SDS011;10047;42.490;26.012;2023-09-19T02:06:59;8.65;;;7.18;;
19776;SDS011;10047;42.490;26.012;2023-09-19T02:09:26;7.72;;;6.93;;
19776;SDS011;10047;42.490;26.012;2023-09-19T02:11:52;7.75;;;6.95;;
19776;SDS011;10047;42.490;26.012;2023-09-19T02:14:17;10.43;;;6.63;;
19776;SDS011;10047;42.490;26.012;2023-09-19T02:16:44;7.22;;;6.28;;
19776;SDS011;10047;42.490;26.012;2023-09-19T02:19:10;6.45;;;5.72;;
19776;SDS011;10047;42.490;26.012;2023-09-19T02:21:36;8.63;;;6.28;;
19776;SDS011;10047;42.490;26.012;2023-09-19T02:24:01;8.00;;;5.90;;
19776;SDS011;10047;42.490;26.012;2023-09-19T02:26:28;7.15;;;6.00;;
19776;SDS011;10047;42.490;26.012;2023-09-19T02:28:53;9.20;;;6.03;;
19776;SDS011;10047;42.490;26.012;2023-09-19T02:31:19;7.90;;;5.93;;
19776;SDS011;10047;42.490;26.012;2023-09-19T02:33:44;6.57;;;5.85;;
19776;SDS011;10047;42.490;26.012;2023-09-19T02:36:11;10.10;;;5.50;;
19776;SDS011;10047;42.490;26.012;2023-09-19T02:38:36;8.00;;;5.65;;
19776;SDS011;10047;42.490;26.012;2023-09-19T02:41:02;7.45;;;6.20;;
19776;SDS011;10047;42.490;26.012;2023-09-19T02:43:28;8.88;;;6.55;;
19776;SDS011;10047;42.490;26.012;2023-09-19T02:45:53;8.02;;;6.80;;
19776;SDS011;10047;42.490;26.012;2023-09-19T02:48:19;7.93;;;7.00;;
19776;SDS011;10047;42.490;26.012;2023-09-19T02:50:45;11.18;;;7.45;;
19776;SDS011;10047;42.490;26.012;2023-09-19T02:53:11;8.85;;;6.75;;
19776;SDS011;10047;42.490;26.012;2023-09-19T02:55:40;10.40;;;6.63;;
19776;SDS011;10047;42.490;26.012;2023-09-19T02:58:05;8.02;;;6.93;;
19776;SDS011;10047;42.490;26.012;2023-09-19T03:00:36;7.97;;;6.80;;
19776;SDS011;10047;42.490;26.012;2023-09-19T03:03:02;9.23;;;6.80;;
19776;SDS011;10047;42.490;26.012;2023-09-19T03:05:28;8.85;;;6.47;;
19776;SDS011;10047;42.490;26.012;2023-09-19T03:07:57;7.90;;;6.60;;
19776;SDS011;10047;42.490;26.012;2023-09-19T03:10:25;9.38;;;6.80;;
19776;SDS011;10047;42.490;26.012;2023-09-19T03:12:51;9.15;;;7.00;;
19776;SDS011;10047;42.490;26.012;2023-09-19T03:15:19;9.35;;;7.47;;
19776;SDS011;10047;42.490;26.012;2023-09-19T03:17:45;13.40;;;7.47;;
19776;SDS011;10047;42.490;26.012;2023-09-19T03:20:12;8.70;;;6.95;;
19776;SDS011;10047;42.490;26.012;2023-09-19T03:22:42;9.65;;;7.03;;
19776;SDS011;10047;42.490;26.012;2023-09-19T03:25:11;8.73;;;7.32;;
19776;SDS011;10047;42.490;26.012;2023-09-19T03:30:06;13.50;;;7.78;;
19776;SDS011;10047;42.490;26.012;2023-09-19T03:32:36;14.23;;;8.25;;
19776;SDS011;10047;42.490;26.012;2023-09-19T03:35:08;9.40;;;7.45;;
19776;SDS011;10047;42.490;26.012;2023-09-19T03:37:36;10.13;;;7.90;;
19776;SDS011;10047;42.490;26.012;2023-09-19T03:40:01;8.93;;;7.07;;
19776;SDS011;10047;42.490;26.012;2023-09-19T03:42:30;10.57;;;8.13;;
19776;SDS011;10047;42.490;26.012;2023-09-19T03:44:56;12.55;;;7.65;;
19776;SDS011;10047;42.490;26.012;2023-09-19T03:47:22;11.32;;;8.15;;
19776;SDS011;10047;42.490;26.012;2023-09-19T03:49:47;10.55;;;7.95;;
19776;SDS011;10047;42.490;26.012;2023-09-19T03:52:13;8.90;;;7.38;;
19776;SDS011;10047;42.490;26.012;2023-09-19T03:54:41;10.88;;;7.72;;
19776;SDS011;10047;42.490;26.012;2023-09-19T03:57:08;13.18;;;7.72;;
19776;SDS011;10047;42.490;26.012;2023-09-19T03:59:33;10.65;;;8.15;;
19776;SDS011;10047;42.490;26.012;2023-09-19T04:02:00;12.95;;;9.27;;
19776;SDS011;10047;42.490;26.012;2023-09-19T04:04:27;10.57;;;7.80;;
19776;SDS011;10047;42.490;26.012;2023-09-19T04:06:54;10.38;;;9.27;;
19776;SDS011;10047;42.490;26.012;2023-09-19T04:09:19;11.80;;;8.52;;
19776;SDS011;10047;42.490;26.012;2023-09-19T04:11:45;15.18;;;8.70;;
19776;SDS011;10047;42.490;26.012;2023-09-19T04:14:10;10.45;;;8.48;;
19776;SDS011;10047;42.490;26.012;2023-09-19T04:16:36;10.68;;;8.70;;
19776;SDS011;10047;42.490;26.012;2023-09-19T04:19:01;12.43;;;9.00;;
19776;SDS011;10047;42.490;26.012;2023-09-19T04:21:28;15.02;;;9.00;;
19776;SDS011;10047;42.490;26.012;2023-09-19T04:23:54;16.45;;;9.15;;
19776;SDS011;10047;42.490;26.012;2023-09-19T04:26:19;14.32;;;10.02;;
19776;SDS011;10047;42.490;26.012;2023-09-19T04:28:45;16.55;;;10.98;;
19776;SDS011;10047;42.490;26.012;2023-09-19T04:31:11;15.77;;;11.02;;
19776;SDS011;10047;42.490;26.012;2023-09-19T04:33:36;14.40;;;10.60;;
19776;SDS011;10047;42.490;26.012;2023-09-19T04:36:02;12.00;;;9.40;;
19776;SDS011;10047;42.490;26.012;2023-09-19T04:38:32;13.35;;;9.07;;
19776;SDS011;10047;42.490;26.012;2023-09-19T04:40:58;14.18;;;7.53;;
19776;SDS011;10047;42.490;26.012;2023-09-19T04:43:24;16.92;;;8.85;;
19776;SDS011;10047;42.490;26.012;2023-09-19T04:45:49;13.85;;;9.13;;
19776;SDS011;10047;42.490;26.012;2023-09-19T04:48:16;14.52;;;8.77;;
19776;SDS011;10047;42.490;26.012;2023-09-19T04:50:41;10.70;;;7.78;;
19776;SDS011;10047;42.490;26.012;2023-09-19T04:53:06;9.40;;;8.02;;
19776;SDS011;10047;42.490;26.012;2023-09-19T04:55:32;13.70;;;8.70;;
19776;SDS011;10047;42.490;26.012;2023-09-19T04:57:58;13.05;;;8.90;;
19776;SDS011;10047;42.490;26.012;2023-09-19T05:00:23;14.23;;;9.10;;
19776;SDS011;10047;42.490;26.012;2023-09-19T05:02:50;17.00;;;9.80;;
19776;SDS011;10047;42.490;26.012;2023-09-19T05:05:16;15.27;;;10.20;;
19776;SDS011;10047;42.490;26.012;2023-09-19T05:07:42;18.15;;;10.57;;
19776;SDS011;10047;42.490;26.012;2023-09-19T05:10:09;11.75;;;8.60;;
19776;SDS011;10047;42.490;26.012;2023-09-19T05:12:35;12.30;;;9.20;;
19776;SDS011;10047;42.490;26.012;2023-09-19T05:15:04;14.75;;;9.18;;
19776;SDS011;10047;42.490;26.012;2023-09-19T05:17:32;12.73;;;9.20;;
19776;SDS011;10047;42.490;26.012;2023-09-19T05:19:58;11.48;;;8.52;;
19776;SDS011;10047;42.490;26.012;2023-09-19T05:22:23;12.25;;;8.98;;
19776;SDS011;10047;42.490;26.012;2023-09-19T05:24:51;13.57;;;9.48;;
19776;SDS011;10047;42.490;26.012;2023-09-19T05:27:18;15.93;;;9.40;;
19776;SDS011;10047;42.490;26.012;2023-09-19T05:29:45;16.60;;;10.10;;
19776;SDS011;10047;42.490;26.012;2023-09-19T05:32:11;12.73;;;8.65;;
19776;SDS011;10047;42.490;26.012;2023-09-19T05:34:37;10.95;;;8.13;;
19776;SDS011;10047;42.490;26.012;2023-09-19T05:37:03;12.45;;;8.18;;
19776;SDS011;10047;42.490;26.012;2023-09-19T05:39:32;10.50;;;8.18;;
19776;SDS011;10047;42.490;26.012;2023-09-19T05:41:58;11.98;;;7.97;;
19776;SDS011;10047;42.490;26.012;2023-09-19T05:44:25;12.93;;;7.80;;
19776;SDS011;10047;42.490;26.012;2023-09-19T05:46:50;11.13;;;7.78;;
19776;SDS011;10047;42.490;26.012;2023-09-19T05:49:16;10.95;;;8.50;;
19776;SDS011;10047;42.490;26.012;2023-09-19T05:51:42;14.38;;;8.73;;
19776;SDS011;10047;42.490;26.012;2023-09-19T05:54:08;14.38;;;9.07;;
19776;SDS011;10047;42.490;26.012;2023-09-19T05:56:33;21.27;;;9.27;;
19776;SDS011;10047;42.490;26.012;2023-09-19T05:58:59;17.17;;;8.93;;
19776;SDS011;10047;42.490;26.012;2023-09-19T06:01:25;12.13;;;8.80;;
19776;SDS011;10047;42.490;26.012;2023-09-19T06:03:50;16.02;;;8.23;;
19776;SDS011;10047;42.490;26.012;2023-09-19T06:06:17;13.45;;;9.35;;
19776;SDS011;10047;42.490;26.012;2023-09-19T06:08:43;13.80;;;8.85;;
19776;SDS011;10047;42.490;26.012;2023-09-19T06:11:09;16.52;;;8.07;;
19776;SDS011;10047;42.490;26.012;2023-09-19T06:13:35;13.88;;;7.80;;
19776;SDS011;10047;42.490;26.012;2023-09-19T06:16:04;12.40;;;6.82;;
19776;SDS011;10047;42.490;26.012;2023-09-19T06:18:30;13.50;;;6.93;;
19776;SDS011;10047;42.490;26.012;2023-09-19T06:20:58;19.73;;;7.43;;
19776;SDS011;10047;42.490;26.012;2023-09-19T06:23:24;9.02;;;7.03;;
19776;SDS011;10047;42.490;26.012;2023-09-19T06:25:51;14.23;;;6.50;;
19776;SDS011;10047;42.490;26.012;2023-09-19T06:28:19;11.50;;;6.47;;
19776;SDS011;10047;42.490;26.012;2023-09-19T06:30:49;10.35;;;5.93;;
19776;SDS011;10047;42.490;26.012;2023-09-19T06:33:15;9.82;;;5.32;;
19776;SDS011;10047;42.490;26.012;2023-09-19T06:35:40;8.35;;;5.50;;
19776;SDS011;10047;42.490;26.012;2023-09-19T06:38:07;16.35;;;6.03;;
19776;SDS011;10047;42.490;26.012;2023-09-19T06:40:33;8.52;;;5.65;;
19776;SDS011;10047;42.490;26.012;2023-09-19T06:42:59;9.52;;;5.25;;
19776;SDS011;10047;42.490;26.012;2023-09-19T06:45:27;9.70;;;5.00;;
19776;SDS011;10047;42.490;26.012;2023-09-19T06:47:52;10.10;;;5.35;;
19776;SDS011;10047;42.490;26.012;2023-09-19T06:50:22;11.15;;;5.38;;
19776;SDS011;10047;42.490;26.012;2023-09-19T06:52:49;9.95;;;5.05;;
19776;SDS011;10047;42.490;26.012;2023-09-19T06:55:17;6.95;;;4.78;;
19776;SDS011;10047;42.490;26.012;2023-09-19T06:57:45;10.45;;;5.20;;
19776;SDS011;10047;42.490;26.012;2023-09-19T07:00:11;5.85;;;4.70;;
19776;SDS011;10047;42.490;26.012;2023-09-19T07:05:26;5.05;;;4.20;;
19776;SDS011;10047;42.490;26.012;2023-09-19T07:07:53;8.73;;;4.18;;
19776;SDS011;10047;42.490;26.012;2023-09-19T07:10:20;7.30;;;4.15;;
19776;SDS011;10047;42.490;26.012;2023-09-19T07:12:53;5.88;;;4.00;;
19776;SDS011;10047;42.490;26.012;2023-09-19T07:15:19;5.85;;;3.83;;
19776;SDS011;10047;42.490;26.012;2023-09-19T07:17:46;6.38;;;3.90;;
19776;SDS011;10047;42.490;26.012;2023-09-19T07:20:11;5.50;;;3.85;;
19776;SDS011;10047;42.490;26.012;2023-09-19T07:22:41;6.38;;;3.80;;
19776;SDS011;10047;42.490;26.012;2023-09-19T07:25:06;5.40;;;3.90;;
19776;SDS011;10047;42.490;26.012;2023-09-19T07:27:33;6.25;;;4.10;;
19776;SDS011;10047;42.490;26.012;2023-09-19T07:29:58;7.30;;;3.90;;
19776;SDS011;10047;42.490;26.012;2023-09-19T07:32:24;5.82;;;3.90;;
19776;SDS011;10047;42.490;26.012;2023-09-19T07:34:50;4.90;;;3.85;;
19776;SDS011;10047;42.490;26.012;2023-09-19T07:37:16;10.75;;;3.60;;
19776;SDS011;10047;42.490;26.012;2023-09-19T07:39:41;3.60;;;3.30;;
19776;SDS011;10047;42.490;26.012;2023-09-19T07:42:09;7.18;;;3.30;;
19776;SDS011;10047;42.490;26.012;2023-09-19T07:44:36;5.03;;;3.17;;
19776;SDS011;10047;42.490;26.012;2023-09-19T07:47:02;5.18;;;3.50;;
19776;SDS011;10047;42.490;26.012;2023-09-19T07:49:28;6.38;;;4.18;;
19776;SDS011;10047;42.490;26.012;2023-09-19T07:51:53;4.68;;;3.33;;
19776;SDS011;10047;42.490;26.012;2023-09-19T07:54:30;4.40;;;3.33;;
19776;SDS011;10047;42.490;26.012;2023-09-19T07:57:00;7.00;;;3.60;;
19776;SDS011;10047;42.490;26.012;2023-09-19T07:59:26;6.32;;;3.47;;
19776;SDS011;10047;42.490;26.012;2023-09-19T08:02:00;4.30;;;3.40;;
19776;SDS011;10047;42.490;26.012;2023-09-19T08:04:25;5.15;;;2.97;;
19776;SDS011;10047;42.490;26.012;2023-09-19T08:06:51;5.72;;;3.65;;
19776;SDS011;10047;42.490;26.012;2023-09-19T08:09:17;5.13;;;3.15;;
19776;SDS011;10047;42.490;26.012;2023-09-19T08:11:46;4.07;;;3.25;;
19776;SDS011;10047;42.490;26.012;2023-09-19T08:14:12;4.50;;;3.40;;
19776;SDS011;10047;42.490;26.012;2023-09-19T08:16:39;4.47;;;3.50;;
19776;SDS011;10047;42.490;26.012;2023-09-19T08:19:06;4.95;;;3.50;;
19776;SDS011;10047;42.490;26.012;2023-09-19T08:21:31;4.82;;;3.90;;
19776;SDS011;10047;42.490;26.012;2023-09-19T08:23:57;5.50;;;3.38;;
19776;SDS011;10047;42.490;26.012;2023-09-19T08:26:23;4.82;;;3.28;;
19776;SDS011;10047;42.490;26.012;2023-09-19T08:28:49;7.03;;;3.88;;
19776;SDS011;10047;42.490;26.012;2023-09-19T08:31:16;4.53;;;3.65;;
19776;SDS011;10047;42.490;26.012;2023-09-19T08:33:42;5.35;;;4.10;;
19776;SDS011;10047;42.490;26.012;2023-09-19T08:36:10;6.30;;;3.50;;
19776;SDS011;10047;42.490;26.012;2023-09-19T08:38:37;4.82;;;3.35;;
19776;SDS011;10047;42.490;26.012;2023-09-19T08:41:06;8.48;;;4.10;;
19776;SDS011;10047;42.490;26.012;2023-09-19T08:43:32;4.87;;;3.40;;
19776;SDS011;10047;42.490;26.012;2023-09-19T08:46:11;8.07;;;3.30;;
19776;SDS011;10047;42.490;26.012;2023-09-19T08:48:42;5.53;;;3.53;;
19776;SDS011;10047;42.490;26.012;2023-09-19T08:51:38;4.00;;;3.42;;
19776;SDS011;10047;42.490;26.012;2023-09-19T08:54:06;5.78;;;3.20;;
19776;SDS011;10047;42.490;26.012;2023-09-19T08:56:33;4.30;;;3.40;;
19776;SDS011;10047;42.490;26.012;2023-09-19T08:59:05;4.85;;;3.60;;
19776;SDS011;10047;42.490;26.012;2023-09-19T09:01:34;3.95;;;3.17;;
19776;SDS011;10047;42.490;26.012;2023-09-19T09:04:01;6.57;;;3.10;;
19776;SDS011;10047;42.490;26.012;2023-09-19T09:06:27;3.78;;;3.13;;
19776;SDS011;10047;42.490;26.012;2023-09-19T09:08:54;6.20;;;3.25;;
19776;SDS011;10047;42.490;26.012;2023-09-19T09:11:21;3.40;;;2.80;;
19776;SDS011;10047;42.490;26.012;2023-09-19T09:13:49;5.32;;;3.03;;
19776;SDS011;10047;42.490;26.012;2023-09-19T09:16:15;5.15;;;3.40;;
19776;SDS011;10047;42.490;26.012;2023-09-19T09:18:44;5.57;;;3.30;;
19776;SDS011;10047;42.490;26.012;2023-09-19T09:21:10;5.47;;;3.33;;
19776;SDS011;10047;42.490;26.012;2023-09-19T09:23:36;5.93;;;3.20;;
19776;SDS011;10047;42.490;26.012;2023-09-19T09:26:03;5.18;;;3.30;;
19776;SDS011;10047;42.490;26.012;2023-09-19T09:28:30;4.28;;;2.92;;
19776;SDS011;10047;42.490;26.012;2023-09-19T09:30:58;5.93;;;2.75;;
19776;SDS011;10047;42.490;26.012;2023-09-19T09:33:24;5.28;;;3.00;;
19776;SDS011;10047;42.490;26.012;2023-09-19T09:38:25;5.30;;;3.38;;
19776;SDS011;10047;42.490;26.012;2023-09-19T09:40:58;4.72;;;3.05;;
19776;SDS011;10047;42.490;26.012;2023-09-19T09:43:25;5.13;;;3.00;;
19776;SDS011;10047;42.490;26.012;2023-09-19T09:46:05;6.88;;;3.45;;
19776;SDS011;10047;42.490;26.012;2023-09-19T09:51:16;3.95;;;2.78;;
19776;SDS011;10047;42.490;26.012;2023-09-19T09:54:09;3.80;;;3.10;;
19776;SDS011;10047;42.490;26.012;2023-09-19T09:56:51;4.95;;;3.00;;
19776;SDS011;10047;42.490;26.012;2023-09-19T10:02:19;5.50;;;3.28;;
19776;SDS011;10047;42.490;26.012;2023-09-19T10:04:50;4.43;;;2.88;;
19776;SDS011;10047;42.490;26.012;2023-09-19T10:07:26;7.85;;;3.10;;
19776;SDS011;10047;42.490;26.012;2023-09-19T10:09:57;4.40;;;3.40;;
19776;SDS011;10047;42.490;26.012;2023-09-19T10:12:36;3.95;;;3.05;;
19776;SDS011;10047;42.490;26.012;2023-09-19T10:15:06;5.35;;;2.90;;
19776;SDS011;10047;42.490;26.012;2023-09-19T10:17:35;5.57;;;3.05;;
19776;SDS011;10047;42.490;26.012;2023-09-19T10:20:02;5.40;;;3.10;;
19776;SDS011;10047;42.490;26.012;2023-09-19T10:22:38;4.90;;;2.70;;
19776;SDS011;10047;42.490;26.012;2023-09-19T10:25:07;4.88;;;2.80;;
19776;SDS011;10047;42.490;26.012;2023-09-19T10:27:33;7.35;;;2.90;;
19776;SDS011;10047;42.490;26.012;2023-09-19T10:30:04;4.38;;;2.65;;
19776;SDS011;10047;42.490;26.012;2023-09-19T10:32:34;4.20;;;2.72;;
19776;SDS011;10047;42.490;26.012;2023-09-19T10:35:00;4.65;;;3.08;;
19776;SDS011;10047;42.490;26.012;2023-09-19T10:37:28;4.57;;;2.85;;
19776;SDS011;10047;42.490;26.012;2023-09-19T10:39:57;4.80;;;3.05;;
19776;SDS011;10047;42.490;26.012;2023-09-19T10:42:23;5.20;;;3.03;;
19776;SDS011;10047;42.490;26.012;2023-09-19T10:44:54;6.22;;;3.00;;
19776;SDS011;10047;42.490;26.012;2023-09-19T10:47:25;3.72;;;2.78;;
19776;SDS011;10047;42.490;26.012;2023-09-19T10:49:51;5.97;;;3.17;;
19776;SDS011;10047;42.490;26.012;2023-09-19T10:52:17;4.20;;;3.22;;
19776;SDS011;10047;42.490;26.012;2023-09-19T10:54:48;4.30;;;2.65;;
19776;SDS011;10047;42.490;26.012;2023-09-19T10:57:20;5.80;;;3.17;;
19776;SDS011;10047;42.490;26.012;2023-09-19T11:06:05;4.00;;;2.85;;
19776;SDS011;10047;42.490;26.012;2023-09-19T11:30:41;4.97;;;3.20;;
19776;SDS011;10047;42.490;26.012;2023-09-19T11:43:53;5.55;;;3.28;;
19776;SDS011;10047;42.490;26.012;2023-09-19T11:46:29;7.53;;;3.20;;
19776;SDS011;10047;42.490;26.012;2023-09-19T11:48:58;5.30;;;2.83;;
19776;SDS011;10047;42.490;26.012;2023-09-19T11:51:41;5.00;;;2.88;;
19776;SDS011;10047;42.490;26.012;2023-09-19T11:54:12;4.25;;;2.80;;
19776;SDS011;10047;42.490;26.012;2023-09-19T11:56:43;6.28;;;2.97;;
19776;SDS011;10047;42.490;26.012;2023-09-19T11:59:10;3.15;;;2.70;;
19776;SDS011;10047;42.490;26.012;2023-09-19T12:01:37;5.93;;;3.13;;
19776;SDS011;10047;42.490;26.012;2023-09-19T12:04:08;7.70;;;3.47;;
19776;SDS011;10047;42.490;26.012;2023-09-19T12:06:37;5.57;;;3.22;;
19776;SDS011;10047;42.490;26.012;2023-09-19T12:09:11;4.65;;;3.20;;
19776;SDS011;10047;42.490;26.012;2023-09-19T12:11:42;4.85;;;3.28;;
19776;SDS011;10047;42.490;26.012;2023-09-19T12:14:09;5.97;;;3.00;;
19776;SDS011;10047;42.490;26.012;2023-09-19T12:16:35;5.25;;;3.20;;
19776;SDS011;10047;42.490;26.012;2023-09-19T12:19:20;5.82;;;3.03;;
19776;SDS011;10047;42.490;26.012;2023-09-19T12:22:05;4.28;;;3.03;;
19776;SDS011;10047;42.490;26.012;2023-09-19T12:24:31;7.78;;;3.42;;
19776;SDS011;10047;42.490;26.012;2023-09-19T12:27:04;6.68;;;3.63;;
19776;SDS011;10047;42.490;26.012;2023-09-19T12:29:31;3.88;;;2.90;;
19776;SDS011;10047;42.490;26.012;2023-09-19T12:31:59;8.15;;;3.20;;
19776;SDS011;10047;42.490;26.012;2023-09-19T12:34:29;4.70;;;2.80;;
19776;SDS011;10047;42.490;26.012;2023-09-19T12:37:05;4.40;;;2.90;;
19776;SDS011;10047;42.490;26.012;2023-09-19T12:39:44;3.72;;;2.88;;
19776;SDS011;10047;42.490;26.012;2023-09-19T12:42:25;4.50;;;3.33;;
19776;SDS011;10047;42.490;26.012;2023-09-19T12:44:57;4.15;;;2.83;;
19776;SDS011;10047;42.490;26.012;2023-09-19T12:47:26;4.85;;;3.15;;
19776;SDS011;10047;42.490;26.012;2023-09-19T12:50:06;3.05;;;2.65;;
19776;SDS011;10047;42.490;26.012;2023-09-19T12:52:37;6.57;;;3.17;;
19776;SDS011;10047;42.490;26.012;2023-09-19T12:55:03;4.30;;;3.10;;
19776;SDS011;10047;42.490;26.012;2023-09-19T12:57:32;5.53;;;3.35;;
19776;SDS011;10047;42.490;26.012;2023-09-19T13:00:00;5.93;;;3.20;;
19776;SDS011;10047;42.490;26.012;2023-09-19T13:02:27;3.95;;;3.30;;
19776;SDS011;10047;42.490;26.012;2023-09-19T13:04:53;3.88;;;3.25;;
19776;SDS011;10047;42.490;26.012;2023-09-19T13:22:45;5.13;;;2.92;;
19776;SDS011;10047;42.490;26.012;2023-09-19T13:25:17;5.20;;;2.95;;
19776;SDS011;10047;42.490;26.012;2023-09-19T13:27:44;5.78;;;3.10;;
19776;SDS011;10047;42.490;26.012;2023-09-19T13:30:13;5.57;;;3.08;;
19776;SDS011;10047;42.490;26.012;2023-09-19T13:32:39;5.35;;;2.67;;
19776;SDS011;10047;42.490;26.012;2023-09-19T13:35:06;4.05;;;3.35;;
19776;SDS011;10047;42.490;26.012;2023-09-19T13:37:34;5.85;;;2.97;;
19776;SDS011;10047;42.490;26.012;2023-09-19T13:40:15;5.50;;;2.90;;
19776;SDS011;10047;42.490;26.012;2023-09-19T13:42:41;5.07;;;2.58;;
19776;SDS011;10047;42.490;26.012;2023-09-19T13:45:07;4.50;;;3.00;;
19776;SDS011;10047;42.490;26.012;2023-09-19T13:47:37;2.83;;;2.55;;
19776;SDS011;10047;42.490;26.012;2023-09-19T13:50:03;3.78;;;2.63;;
19776;SDS011;10047;42.490;26.012;2023-09-19T13:52:30;3.40;;;2.95;;
19776;SDS011;10047;42.490;26.012;2023-09-19T13:54:56;4.85;;;2.97;;
19776;SDS011;10047;42.490;26.012;2023-09-19T13:57:23;3.75;;;2.80;;
19776;SDS011;10047;42.490;26.012;2023-09-19T13:59:54;4.05;;;2.75;;
19776;SDS011;10047;42.490;26.012;2023-09-19T14:02:20;4.60;;;3.00;;
19776;SDS011;10047;42.490;26.012;2023-09-19T14:04:48;5.82;;;3.25;;
19776;SDS011;10047;42.490;26.012;2023-09-19T14:07:14;5.25;;;3.30;;
19776;SDS011;10047;42.490;26.012;2023-09-19T14:09:40;4.25;;;3.50;;
19776;SDS011;10047;42.490;26.012;2023-09-19T14:12:06;5.85;;;3.35;;
19776;SDS011;10047;42.490;26.012;2023-09-19T14:14:32;7.07;;;3.45;;
19776;SDS011;10047;42.490;26.012;2023-09-19T14:16:57;3.80;;;3.22;;
19776;SDS011;10047;42.490;26.012;2023-09-19T14:19:25;7.63;;;3.15;;
19776;SDS011;10047;42.490;26.012;2023-09-19T14:21:52;6.13;;;3.20;;
19776;SDS011;10047;42.490;26.012;2023-09-19T14:24:20;5.10;;;3.22;;
19776;SDS011;10047;42.490;26.012;2023-09-19T14:26:46;4.03;;;3.33;;
19776;SDS011;10047;42.490;26.012;2023-09-19T14:29:12;7.95;;;3.70;;
19776;SDS011;10047;42.490;26.012;2023-09-19T14:31:38;5.15;;;3.40;;
19776;SDS011;10047;42.490;26.012;2023-09-19T14:34:06;6.25;;;3.08;;
19776;SDS011;10047;42.490;26.012;2023-09-19T14:36:32;4.32;;;3.30;;
19776;SDS011;10047;42.490;26.012;2023-09-19T14:38:58;6.68;;;3.13;;
19776;SDS011;10047;42.490;26.012;2023-09-19T14:41:24;7.63;;;3.80;;
19776;SDS011;10047;42.490;26.012;2023-09-19T14:43:51;4.70;;;3.53;;
19776;SDS011;10047;42.490;26.012;2023-09-19T14:46:17;5.13;;;3.50;;
19776;SDS011;10047;42.490;26.012;2023-09-19T14:48:43;7.43;;;3.53;;
19776;SDS011;10047;42.490;26.012;2023-09-19T14:51:09;10.43;;;3.60;;
19776;SDS011;10047;42.490;26.012;2023-09-19T14:53:35;5.35;;;3.33;;
19776;SDS011;10047;42.490;26.012;2023-09-19T14:56:03;8.00;;;3.53;;
19776;SDS011;10047;42.490;26.012;2023-09-19T14:58:29;7.32;;;3.50;;
19776;SDS011;10047;42.490;26.012;2023-09-19T15:01:28;10.25;;;3.85;;
19776;SDS011;10047;42.490;26.012;2023-09-19T15:03:47;5.80;;;3.78;;
19776;SDS011;10047;42.490;26.012;2023-09-19T15:06:14;7.97;;;3.85;;
19776;SDS011;10047;42.490;26.012;2023-09-19T15:08:42;5.82;;;3.45;;
19776;SDS011;10047;42.490;26.012;2023-09-19T15:11:12;4.97;;;3.78;;
19776;SDS011;10047;42.490;26.012;2023-09-19T15:13:45;4.60;;;3.60;;
19776;SDS011;10047;42.490;26.012;2023-09-19T15:16:12;5.20;;;3.60;;
19776;SDS011;10047;42.490;26.012;2023-09-19T15:18:39;5.35;;;3.78;;
19776;SDS011;10047;42.490;26.012;2023-09-19T15:21:10;9.65;;;3.95;;
19776;SDS011;10047;42.490;26.012;2023-09-19T15:23:36;8.68;;;3.97;;
19776;SDS011;10047;42.490;26.012;2023-09-19T15:26:03;6.57;;;3.70;;
19776;SDS011;10047;42.490;26.012;2023-09-19T15:28:30;5.38;;;3.85;;
19776;SDS011;10047;42.490;26.012;2023-09-19T15:31:01;6.85;;;3.70;;
19776;SDS011;10047;42.490;26.012;2023-09-19T15:33:27;6.30;;;3.80;;
19776;SDS011;10047;42.490;26.012;2023-09-19T15:44:03;6.68;;;3.90;;
19776;SDS011;10047;42.490;26.012;2023-09-19T15:46:32;9.55;;;3.78;;
19776;SDS011;10047;42.490;26.012;2023-09-19T15:49:00;8.30;;;4.22;;
19776;SDS011;10047;42.490;26.012;2023-09-19T15:51:26;8.35;;;4.00;;
19776;SDS011;10047;42.490;26.012;2023-09-19T15:53:52;8.23;;;3.63;;
19776;SDS011;10047;42.490;26.012;2023-09-19T15:56:19;6.68;;;3.80;;
19776;SDS011;10047;42.490;26.012;2023-09-19T15:58:48;6.45;;;3.97;;
19776;SDS011;10047;42.490;26.012;2023-09-19T16:01:21;5.35;;;3.75;;
19776;SDS011;10047;42.490;26.012;2023-09-19T16:03:47;6.38;;;3.88;;
19776;SDS011;10047;42.490;26.012;2023-09-19T16:06:15;6.80;;;4.13;;
19776;SDS011;10047;42.490;26.012;2023-09-19T16:08:44;7.03;;;4.07;;
19776;SDS011;10047;42.490;26.012;2023-09-19T16:11:10;7.28;;;4.40;;